createdAt,value
2022-12-26T00:00:27.859Z,7.43
2022-12-26T00:03:32.647Z,9.40
2022-12-26T00:06:37.508Z,10.50
2022-12-26T00:09:42.142Z,9.25
2022-12-26T00:12:46.680Z,8.93
2022-12-26T00:15:51.407Z,9.33
2022-12-26T00:18:56.978Z,10.67
2022-12-26T00:25:05.948Z,11.43
2022-12-26T00:28:10.497Z,12.63
2022-12-26T00:31:18.512Z,8.82
2022-12-26T00:34:23.158Z,6.28
2022-12-26T00:37:27.721Z,9.95
2022-12-26T00:40:34.647Z,8.73
2022-12-26T00:43:40.579Z,6.25
2022-12-26T00:46:45.182Z,5.35
2022-12-26T00:50:12.355Z,4.88
2022-12-26T00:53:14.749Z,4.63
2022-12-26T00:56:19.673Z,8.37
2022-12-26T00:59:24.129Z,5.77
2022-12-26T01:02:41.082Z,12.93
2022-12-26T01:05:51.491Z,10.40
2022-12-26T01:09:00.478Z,8.68
2022-12-26T01:12:05.322Z,5.93
2022-12-26T01:15:10.800Z,6.35
2022-12-26T01:18:15.432Z,5.13
2022-12-26T01:21:19.710Z,6.13
2022-12-26T01:24:24.434Z,7.75
2022-12-26T01:27:29.160Z,6.35
2022-12-26T01:30:33.626Z,8.65
2022-12-26T01:33:38.358Z,8.88
2022-12-26T01:36:42.719Z,12.85
2022-12-26T01:39:47.383Z,17.98
2022-12-26T01:42:52.324Z,8.68
2022-12-26T01:45:57.055Z,8.57
2022-12-26T01:49:14.785Z,7.35
2022-12-26T01:52:29.606Z,4.25
2022-12-26T01:55:34.798Z,5.97
2022-12-26T01:58:51.630Z,10.85
2022-12-26T02:01:56.847Z,4.88
2022-12-26T02:05:20.514Z,4.63
2022-12-26T02:08:30.627Z,6.20
2022-12-26T02:11:39.993Z,10.95
2022-12-26T02:14:45.651Z,3.70
2022-12-26T02:17:50.209Z,3.60
2022-12-26T02:21:05.044Z,3.88
2022-12-26T02:24:44.170Z,4.07
2022-12-26T02:28:03.447Z,3.90
2022-12-26T02:31:10.896Z,3.38
2022-12-26T02:34:25.012Z,4.50
2022-12-26T02:37:55.703Z,3.67
2022-12-26T02:41:07.330Z,3.50
2022-12-26T02:44:44.349Z,3.75
2022-12-26T02:48:08.089Z,2.97
2022-12-26T02:51:50.640Z,4.47
2022-12-26T02:55:57.696Z,3.58
2022-12-26T02:59:55.842Z,4.53
2022-12-26T03:03:37.273Z,3.63
2022-12-26T03:07:26.533Z,4.28
2022-12-26T03:10:54.014Z,4.97
2022-12-26T03:14:08.368Z,5.40
2022-12-26T03:17:20.607Z,5.28
2022-12-26T03:20:30.880Z,5.10
2022-12-26T03:23:37.986Z,5.78
2022-12-26T03:26:49.896Z,5.57
2022-12-26T03:30:12.794Z,7.10
2022-12-26T03:33:47.804Z,5.35
2022-12-26T03:37:22.689Z,7.22
2022-12-26T03:41:06.633Z,4.22
2022-12-26T03:44:53.936Z,4.57
2022-12-26T03:48:27.387Z,5.00
2022-12-26T03:52:03.434Z,3.92
2022-12-26T03:55:35.806Z,5.60
2022-12-26T03:59:03.813Z,4.35
2022-12-26T04:02:29.875Z,4.50
2022-12-26T04:09:31.209Z,6.30
2022-12-26T04:12:57.530Z,5.80
2022-12-26T04:16:40.962Z,4.60
2022-12-26T04:20:12.138Z,4.00
2022-12-26T04:23:47.433Z,5.00
2022-12-26T04:27:14.718Z,6.00
2022-12-26T04:30:38.153Z,4.00
2022-12-26T04:34:17.912Z,6.72
2022-12-26T04:37:45.583Z,5.40
2022-12-26T04:41:14.136Z,6.63
2022-12-26T04:44:24.156Z,5.22
2022-12-26T04:47:31.053Z,4.97
2022-12-26T04:50:35.696Z,6.20
2022-12-26T04:53:40.329Z,7.60
2022-12-26T04:56:44.946Z,6.28
2022-12-26T04:59:50.452Z,6.53
2022-12-26T05:03:19.097Z,6.27
2022-12-26T05:06:42.326Z,10.27
2022-12-26T05:09:50.732Z,13.32
2022-12-26T05:12:56.296Z,5.85
2022-12-26T05:16:19.198Z,22.30
2022-12-26T05:19:42.337Z,17.95
2022-12-26T05:23:07.730Z,13.35
2022-12-26T05:26:41.865Z,7.60
2022-12-26T05:29:46.504Z,5.57
2022-12-26T05:33:09.693Z,26.80
2022-12-26T05:36:15.796Z,7.72
2022-12-26T05:39:20.813Z,7.88
2022-12-26T05:42:25.455Z,12.02
2022-12-26T05:45:29.998Z,6.80
2022-12-26T05:48:34.677Z,7.25
2022-12-26T05:51:39.299Z,4.15
2022-12-26T05:54:43.665Z,7.90
2022-12-26T05:57:48.274Z,9.23
2022-12-26T06:00:53.142Z,7.18
2022-12-26T06:04:00.294Z,5.63
2022-12-26T06:07:06.034Z,6.22
2022-12-26T06:10:11.146Z,11.48
2022-12-26T06:13:16.579Z,8.02
2022-12-26T06:16:21.327Z,3.92
2022-12-26T06:19:25.927Z,8.68
2022-12-26T06:22:31.271Z,7.40
2022-12-26T06:25:35.845Z,5.65
2022-12-26T06:28:42.074Z,13.20
2022-12-26T06:31:46.644Z,24.40
2022-12-26T06:34:51.224Z,6.85
2022-12-26T06:37:55.857Z,5.72
2022-12-26T06:41:00.450Z,7.75
2022-12-26T06:44:05.791Z,4.70
2022-12-26T06:47:11.011Z,8.27
2022-12-26T06:50:15.555Z,6.93
2022-12-26T06:53:20.550Z,6.57
2022-12-26T06:56:28.675Z,7.20
2022-12-26T06:59:33.194Z,6.47
2022-12-26T07:02:38.357Z,12.82
2022-12-26T07:05:42.823Z,18.67
2022-12-26T07:08:47.460Z,8.82
2022-12-26T07:11:52.542Z,7.90
2022-12-26T07:15:01.546Z,8.68
2022-12-26T07:18:07.874Z,7.63
2022-12-26T07:21:15.313Z,8.30
2022-12-26T07:24:21.805Z,13.57
2022-12-26T07:27:26.668Z,9.27
2022-12-26T07:30:31.297Z,8.90
2022-12-26T07:33:35.729Z,14.50
2022-12-26T07:36:41.234Z,9.10
2022-12-26T07:39:45.603Z,7.03
2022-12-26T07:42:50.062Z,6.75
2022-12-26T07:45:59.355Z,7.53
2022-12-26T07:49:04.891Z,7.30
2022-12-26T07:52:09.401Z,11.05
2022-12-26T07:55:14.138Z,14.25
2022-12-26T07:58:18.503Z,12.40
2022-12-26T08:01:23.333Z,15.57
2022-12-26T08:04:28.359Z,10.98
2022-12-26T08:07:32.812Z,10.73
2022-12-26T08:10:37.240Z,12.90
2022-12-26T08:13:41.847Z,15.00
2022-12-26T08:16:51.331Z,8.75
2022-12-26T08:19:57.634Z,7.43
2022-12-26T08:23:02.201Z,7.53
2022-12-26T08:26:14.486Z,14.02
2022-12-26T08:29:19.369Z,9.63
2022-12-26T08:32:24.031Z,7.60
2022-12-26T08:35:30.883Z,10.37
2022-12-26T08:38:35.519Z,9.98
2022-12-26T08:41:40.617Z,14.10
2022-12-26T08:44:45.906Z,26.92
2022-12-26T08:47:50.453Z,16.30
2022-12-26T08:51:03.208Z,17.02
2022-12-26T08:54:08.016Z,24.67
2022-12-26T08:57:12.488Z,14.43
2022-12-26T09:00:17.813Z,36.70
2022-12-26T09:03:22.581Z,17.50
2022-12-26T09:06:27.609Z,18.52
2022-12-26T09:09:32.258Z,30.95
2022-12-26T09:12:36.937Z,17.63
2022-12-26T09:15:41.303Z,24.10
2022-12-26T09:18:47.736Z,16.17
2022-12-26T09:25:24.365Z,15.60
2022-12-26T09:28:28.852Z,20.08
2022-12-26T09:31:36.025Z,8.80
2022-12-26T09:34:40.517Z,12.52
2022-12-26T09:37:46.588Z,12.80
2022-12-26T09:41:03.306Z,11.27
2022-12-26T09:44:24.648Z,12.57
2022-12-26T09:47:36.506Z,12.77
2022-12-26T09:50:43.403Z,7.63
2022-12-26T09:53:49.082Z,9.15
2022-12-26T09:57:02.988Z,14.10
2022-12-26T10:00:09.075Z,17.05
2022-12-26T10:03:16.695Z,17.40
2022-12-26T10:06:22.716Z,13.80
2022-12-26T10:09:45.555Z,13.30
2022-12-26T10:13:12.437Z,24.60
2022-12-26T10:16:35.030Z,20.70
2022-12-26T10:20:07.773Z,14.38
2022-12-26T10:23:35.320Z,8.68
2022-12-26T10:26:50.788Z,10.25
2022-12-26T10:30:08.467Z,10.07
2022-12-26T10:33:31.825Z,13.27
2022-12-26T10:36:56.387Z,15.85
2022-12-26T10:40:24.780Z,19.40
2022-12-26T10:43:35.796Z,30.52
2022-12-26T10:46:40.841Z,21.95
2022-12-26T10:49:49.791Z,20.02
2022-12-26T10:52:54.584Z,12.57
2022-12-26T10:56:02.002Z,15.00
2022-12-26T10:59:07.525Z,19.83
2022-12-26T11:05:57.061Z,20.70
2022-12-26T11:08:52.595Z,22.90
2022-12-26T11:11:57.404Z,19.92
2022-12-26T11:15:06.557Z,17.70
2022-12-26T11:18:35.747Z,15.32
2022-12-26T11:21:40.622Z,14.35
2022-12-26T11:24:45.307Z,13.10
2022-12-26T11:27:56.230Z,12.30
2022-12-26T11:31:06.252Z,13.60
2022-12-26T11:34:20.099Z,27.08
2022-12-26T11:37:35.424Z,16.42
2022-12-26T11:41:10.875Z,22.25
2022-12-26T11:44:41.883Z,26.42
2022-12-26T11:47:47.755Z,17.48
2022-12-26T11:50:53.887Z,14.70
2022-12-26T11:54:29.147Z,13.88
2022-12-26T11:57:34.883Z,17.33
2022-12-26T12:01:04.017Z,16.75
2022-12-26T12:04:09.862Z,18.40
2022-12-26T12:07:29.172Z,16.55
2022-12-26T12:11:08.996Z,25.77
2022-12-26T12:14:31.967Z,28.33
2022-12-26T12:17:48.638Z,15.15
2022-12-26T12:21:11.624Z,17.52
2022-12-26T12:24:53.096Z,20.15
2022-12-26T12:28:33.008Z,18.65
2022-12-26T12:32:05.856Z,15.60
2022-12-26T12:35:24.199Z,22.67
2022-12-26T12:39:12.034Z,26.90
2022-12-26T12:42:34.704Z,18.50
2022-12-26T12:46:11.843Z,19.05
2022-12-26T12:49:33.028Z,18.10
2022-12-26T12:53:20.554Z,23.85
2022-12-26T12:56:46.415Z,25.10
2022-12-26T13:00:15.261Z,40.47
2022-12-26T13:03:29.276Z,18.13
2022-12-26T13:06:59.497Z,19.77
2022-12-26T13:10:08.143Z,7.97
2022-12-26T13:13:31.411Z,24.85
2022-12-26T13:16:44.422Z,6.45
2022-12-26T13:19:55.158Z,6.43
2022-12-26T13:23:50.054Z,6.95
2022-12-26T13:27:02.138Z,7.32
2022-12-26T13:30:17.323Z,10.50
2022-12-26T13:33:22.347Z,10.57
2022-12-26T13:36:39.473Z,7.70
2022-12-26T13:39:44.210Z,6.95
2022-12-26T13:43:38.849Z,8.00
2022-12-26T13:46:43.242Z,7.18
2022-12-26T13:49:47.676Z,8.95
2022-12-26T13:52:53.497Z,17.47
2022-12-26T13:56:12.540Z,12.70
2022-12-26T13:59:33.622Z,11.82
2022-12-26T14:03:19.076Z,12.77
2022-12-26T14:06:40.448Z,11.05
2022-12-26T14:10:15.585Z,9.10
2022-12-26T14:13:58.580Z,10.52
2022-12-26T14:17:50.295Z,7.28
2022-12-26T14:21:03.100Z,8.70
2022-12-26T14:24:43.281Z,7.68
2022-12-26T14:28:06.000Z,10.02
2022-12-26T14:31:27.519Z,9.43
2022-12-26T14:34:32.046Z,8.98
2022-12-26T14:37:36.407Z,8.07
2022-12-26T14:41:32.024Z,9.85
2022-12-26T14:44:39.660Z,9.35
2022-12-26T14:47:47.385Z,8.73
2022-12-26T14:50:55.871Z,10.20
2022-12-26T14:54:37.666Z,10.02
2022-12-26T14:57:48.706Z,9.50
2022-12-26T15:00:54.636Z,9.35
2022-12-26T15:04:10.899Z,9.02
2022-12-26T15:07:43.774Z,8.75
2022-12-26T15:11:23.066Z,8.43
2022-12-26T15:14:54.484Z,8.20
2022-12-26T15:18:29.642Z,12.80
2022-12-26T15:22:12.537Z,12.45
2022-12-26T15:25:34.769Z,8.45
2022-12-26T15:29:21.098Z,8.43
2022-12-26T15:32:55.826Z,8.63
2022-12-26T15:36:04.583Z,8.53
2022-12-26T15:39:34.063Z,7.60
2022-12-26T15:43:03.312Z,7.78
2022-12-26T15:46:16.551Z,7.95
2022-12-26T15:49:31.655Z,7.57
2022-12-26T15:52:41.950Z,9.23
2022-12-26T15:56:05.277Z,9.07
2022-12-26T15:59:28.373Z,9.25
2022-12-26T16:03:04.555Z,8.07
2022-12-26T16:06:27.831Z,11.40
2022-12-26T16:09:45.595Z,13.10
2022-12-26T16:13:21.393Z,12.23
2022-12-26T16:16:34.282Z,7.20
2022-12-26T16:19:38.929Z,9.20
2022-12-26T16:22:49.725Z,10.67
2022-12-26T16:25:56.893Z,9.90
2022-12-26T16:29:02.624Z,10.27
2022-12-26T16:32:08.917Z,8.52
2022-12-26T16:35:29.919Z,7.60
2022-12-26T16:38:36.209Z,8.93
2022-12-26T16:42:01.318Z,8.27
2022-12-26T16:45:06.772Z,7.40
2022-12-26T16:48:16.602Z,7.80
2022-12-26T16:51:43.882Z,8.15
2022-12-26T16:54:50.871Z,8.68
2022-12-26T16:57:58.714Z,8.07
2022-12-26T17:01:10.929Z,8.02
2022-12-26T17:04:24.884Z,8.27
2022-12-26T17:07:30.587Z,9.20
2022-12-26T17:13:42.201Z,7.43
2022-12-26T17:19:54.321Z,6.47
2022-12-26T17:23:00.108Z,12.98
2022-12-26T17:26:25.662Z,7.75
2022-12-26T17:29:55.921Z,10.50
2022-12-26T17:33:20.034Z,9.60
2022-12-26T17:40:02.460Z,9.13
2022-12-26T17:43:12.773Z,8.43
2022-12-26T17:46:19.435Z,8.45
2022-12-26T17:49:23.991Z,8.52
2022-12-26T17:52:30.724Z,7.90
2022-12-26T17:55:38.380Z,7.70
2022-12-26T17:58:43.443Z,7.93
2022-12-26T18:01:47.982Z,7.55
2022-12-26T18:04:53.091Z,7.17
2022-12-26T18:07:57.807Z,9.80
2022-12-26T18:11:04.295Z,9.70
2022-12-26T18:14:13.645Z,10.75
2022-12-26T18:17:19.679Z,13.50
2022-12-26T18:20:27.607Z,8.55
2022-12-26T18:23:32.273Z,8.88
2022-12-26T18:26:37.930Z,7.50
2022-12-26T18:29:43.782Z,8.45
2022-12-26T18:32:50.166Z,8.07
2022-12-26T18:35:56.127Z,12.57
2022-12-26T18:39:01.105Z,7.35
2022-12-26T18:42:07.202Z,8.23
2022-12-26T18:45:12.005Z,8.90
2022-12-26T18:48:18.161Z,9.60
2022-12-26T18:51:22.930Z,6.95
2022-12-26T18:54:27.399Z,7.13
2022-12-26T18:57:32.133Z,10.13
2022-12-26T19:00:37.292Z,11.73
2022-12-26T19:03:43.260Z,10.18
2022-12-26T19:06:48.039Z,11.52
2022-12-26T19:09:58.914Z,10.23
2022-12-26T19:13:07.709Z,11.70
2022-12-26T19:16:12.382Z,9.23
2022-12-26T19:19:16.846Z,14.60
2022-12-26T19:22:21.297Z,9.25
2022-12-26T19:25:27.369Z,10.82
2022-12-26T19:28:31.845Z,10.23
2022-12-26T19:31:36.261Z,10.75
2022-12-26T19:34:40.781Z,12.85
2022-12-26T19:37:45.641Z,8.93
2022-12-26T19:40:50.071Z,9.57
2022-12-26T19:43:59.587Z,9.68
2022-12-26T19:47:11.645Z,8.25
2022-12-26T19:50:17.555Z,8.52
2022-12-26T19:53:22.284Z,9.60
2022-12-26T19:56:28.788Z,10.70
2022-12-26T19:59:34.000Z,12.85
2022-12-26T20:02:38.368Z,16.30
2022-12-26T20:05:45.832Z,16.25
2022-12-26T20:08:51.463Z,15.90
2022-12-26T20:11:56.709Z,13.75
2022-12-26T20:15:01.306Z,11.05
2022-12-26T20:18:10.922Z,10.73
2022-12-26T20:21:19.778Z,12.90
2022-12-26T20:24:24.312Z,12.05
2022-12-26T20:27:28.841Z,12.80
2022-12-26T20:30:33.345Z,9.98
2022-12-26T20:33:39.913Z,8.33
2022-12-26T20:36:44.489Z,9.27
2022-12-26T20:39:49.121Z,10.13
2022-12-26T20:42:53.636Z,9.23
2022-12-26T20:46:02.992Z,9.30
2022-12-26T20:49:10.755Z,13.75
2022-12-26T20:52:15.453Z,8.68
2022-12-26T20:55:19.865Z,9.33
2022-12-26T20:58:25.742Z,12.27
2022-12-26T21:01:30.432Z,12.82
2022-12-26T21:04:35.060Z,12.13
2022-12-26T21:07:40.421Z,9.20
2022-12-26T21:10:45.071Z,9.80
2022-12-26T21:13:51.248Z,10.60
2022-12-26T21:16:58.089Z,23.08
2022-12-26T21:20:02.593Z,14.65
2022-12-26T21:23:07.212Z,12.68
2022-12-26T21:26:12.183Z,11.97
2022-12-26T21:29:21.233Z,14.43
2022-12-26T21:32:25.616Z,13.00
2022-12-26T21:35:30.112Z,12.18
2022-12-26T21:38:34.460Z,11.63
2022-12-26T21:41:39.296Z,10.27
2022-12-26T21:44:43.977Z,10.38
2022-12-26T21:47:48.483Z,14.35
2022-12-26T21:50:52.901Z,10.63
2022-12-26T21:54:17.319Z,9.93
2022-12-26T21:57:22.762Z,10.27
2022-12-26T22:00:28.125Z,8.40
2022-12-26T22:03:51.075Z,10.38
2022-12-26T22:06:55.729Z,10.27
2022-12-26T22:10:00.570Z,9.47
2022-12-26T22:13:06.457Z,11.50
2022-12-26T22:16:13.325Z,10.32
2022-12-26T22:19:17.825Z,10.10
2022-12-26T22:22:22.262Z,11.57
2022-12-26T22:25:27.016Z,10.05
2022-12-26T22:28:31.580Z,13.93
2022-12-26T22:31:38.698Z,8.70
2022-12-26T22:34:43.842Z,9.82
2022-12-26T22:37:48.322Z,8.80
2022-12-26T22:40:55.911Z,14.20
2022-12-26T22:44:00.550Z,11.43
2022-12-26T22:47:04.913Z,12.20
2022-12-26T22:50:11.338Z,13.82
2022-12-26T22:53:16.049Z,15.35
2022-12-26T22:56:20.577Z,36.25
2022-12-26T22:59:58.013Z,11.15
2022-12-26T23:02:49.941Z,25.25
2022-12-26T23:05:54.941Z,39.38
2022-12-26T23:09:03.005Z,20.42
2022-12-26T23:12:26.135Z,16.65
2022-12-26T23:15:31.090Z,13.00
2022-12-26T23:19:12.638Z,12.80
2022-12-26T23:22:17.367Z,13.52
2022-12-26T23:25:21.822Z,11.30
2022-12-26T23:28:45.052Z,11.40
2022-12-26T23:31:49.586Z,10.13
2022-12-26T23:34:53.881Z,8.97
2022-12-26T23:37:58.555Z,8.75
2022-12-26T23:41:03.148Z,15.20
2022-12-26T23:44:08.302Z,11.32
2022-12-26T23:47:13.135Z,8.70
2022-12-26T23:50:22.739Z,11.73
2022-12-26T23:53:26.937Z,14.05
2022-12-26T23:56:34.513Z,26.02
2022-12-26T23:59:39.033Z,11.13
